createdAt,value
2023-03-07T00:00:20.319Z,5.200000
2023-03-07T00:05:23.724Z,6.000000
2023-03-07T00:10:24.176Z,6.000000
2023-03-07T00:15:26.629Z,6.000000
2023-03-07T00:20:28.159Z,6.000000
2023-03-07T00:25:29.906Z,6.000000
2023-03-07T00:30:34.136Z,6.000000
2023-03-07T00:35:34.508Z,6.000000
2023-03-07T00:40:35.815Z,6.000000
2023-03-07T00:45:19.509Z,6.000000
2023-03-07T00:50:20.284Z,6.000000
2023-03-07T00:55:22.172Z,6.000000
2023-03-07T01:00:24.051Z,6.000000
2023-03-07T01:05:31.086Z,6.000000
2023-03-07T01:10:29.602Z,8.133333
2023-03-07T01:15:32.153Z,10.000000
2023-03-07T01:20:33.819Z,8.400000
2023-03-07T01:25:37.640Z,7.000000
2023-03-07T01:30:16.971Z,7.000000
2023-03-07T01:35:20.130Z,7.000000
2023-03-07T01:40:22.963Z,7.600000
2023-03-07T01:45:23.760Z,8.000000
2023-03-07T01:50:26.278Z,6.933333
2023-03-07T01:55:30.737Z,6.000000
2023-03-07T02:00:32.650Z,6.000000
2023-03-07T02:05:43.124Z,6.000000
2023-03-07T02:10:37.213Z,5.400000
2023-03-07T02:15:20.865Z,5.000000
2023-03-07T02:20:21.747Z,6.200000
2023-03-07T02:25:25.176Z,7.000000
2023-03-07T02:30:27.464Z,7.533333
2023-03-07T02:35:28.705Z,8.000000
2023-03-07T02:40:30.854Z,7.466667
2023-03-07T02:45:32.622Z,7.000000
2023-03-07T02:50:35.031Z,5.200000
2023-03-07T02:55:16.738Z,4.000000
2023-03-07T03:00:18.653Z,6.400000
2023-03-07T03:05:21.106Z,8.000000
2023-03-07T03:10:23.222Z,5.714286
2023-03-07T03:15:25.323Z,4.000000
2023-03-07T03:20:26.991Z,4.000000
2023-03-07T03:25:29.224Z,4.000000
2023-03-07T03:30:31.153Z,6.133333
2023-03-07T03:35:33.437Z,8.000000
2023-03-07T03:40:35.881Z,7.400000
2023-03-07T03:45:17.085Z,7.000000
2023-03-07T03:50:18.774Z,5.800000
2023-03-07T03:55:20.717Z,5.000000
2023-03-07T04:00:23.115Z,6.714286
2023-03-07T04:05:25.251Z,8.000000
2023-03-07T04:10:26.865Z,5.866667
2023-03-07T04:15:30.709Z,4.000000
2023-03-07T04:20:30.994Z,4.533333
2023-03-07T04:25:32.928Z,5.000000
2023-03-07T04:30:34.909Z,6.200000
2023-03-07T04:35:16.307Z,7.000000
2023-03-07T04:40:18.702Z,5.800000
2023-03-07T04:45:20.551Z,5.000000
2023-03-07T04:50:22.706Z,5.000000
2023-03-07T04:55:24.489Z,5.000000
2023-03-07T05:00:26.524Z,15.666667
2023-03-07T05:05:28.533Z,25.000000
2023-03-07T05:10:30.276Z,15.400000
2023-03-07T05:15:32.326Z,7.000000
2023-03-07T05:20:34.200Z,6.400000
2023-03-07T05:25:15.987Z,6.000000
2023-03-07T05:30:18.150Z,8.400000
2023-03-07T05:35:20.209Z,10.000000
2023-03-07T05:40:22.224Z,7.142857
2023-03-07T05:45:24.123Z,5.000000
2023-03-07T05:50:26.026Z,4.466667
2023-03-07T05:55:27.978Z,4.000000
2023-03-07T06:00:29.821Z,5.066667
2023-03-07T06:05:31.704Z,6.000000
2023-03-07T06:10:33.784Z,5.400000
2023-03-07T06:15:35.647Z,5.000000
2023-03-07T06:20:17.403Z,5.000000
2023-03-07T06:25:19.342Z,5.000000
2023-03-07T06:30:21.443Z,6.200000
2023-03-07T06:35:23.279Z,7.000000
2023-03-07T06:40:25.089Z,5.933333
2023-03-07T06:45:27.074Z,5.000000
2023-03-07T06:50:35.183Z,6.066667
2023-03-07T06:55:30.799Z,7.000000
2023-03-07T07:00:32.795Z,5.800000
2023-03-07T07:05:35.138Z,5.000000
2023-03-07T07:10:16.819Z,5.000000
2023-03-07T07:15:18.832Z,5.000000
2023-03-07T07:20:20.697Z,5.000000
2023-03-07T07:25:22.649Z,5.000000
2023-03-07T07:30:24.606Z,5.533333
2023-03-07T07:35:26.527Z,6.000000
2023-03-07T07:40:28.445Z,6.000000
2023-03-07T07:45:30.267Z,6.000000
2023-03-07T07:50:32.122Z,6.000000
2023-03-07T07:55:34.211Z,6.000000
2023-03-07T08:00:16.062Z,7.200000
2023-03-07T08:05:17.969Z,8.000000
2023-03-07T08:10:20.044Z,9.200000
2023-03-07T08:15:22.142Z,10.000000
2023-03-07T08:20:23.869Z,8.857143
2023-03-07T08:25:26.051Z,8.000000
2023-03-07T08:30:27.758Z,8.533333
2023-03-07T08:35:29.762Z,9.000000
2023-03-07T08:40:31.629Z,8.466667
2023-03-07T08:45:33.710Z,8.000000
2023-03-07T08:50:35.603Z,8.000000
2023-03-07T08:55:17.459Z,8.000000
2023-03-07T09:00:19.327Z,9.800000
2023-03-07T09:05:21.126Z,11.000000
2023-03-07T09:10:23.244Z,11.000000
2023-03-07T09:15:25.141Z,11.000000
2023-03-07T09:20:28.049Z,9.933333
2023-03-07T09:25:29.000Z,9.000000
2023-03-07T09:30:30.934Z,10.066667
2023-03-07T09:35:32.912Z,11.000000
2023-03-07T09:40:34.980Z,12.200000
2023-03-07T09:45:16.507Z,13.000000
2023-03-07T09:50:18.524Z,14.200000
2023-03-07T09:55:20.385Z,15.000000
2023-03-07T10:00:22.346Z,15.571429
2023-03-07T10:05:24.401Z,16.000000
2023-03-07T10:10:26.247Z,14.400000
2023-03-07T10:15:28.203Z,13.000000
2023-03-07T10:20:29.910Z,11.933333
2023-03-07T10:25:32.095Z,11.000000
2023-03-07T10:30:34.004Z,11.600000
2023-03-07T10:35:35.943Z,12.000000
2023-03-07T10:40:17.660Z,11.400000
2023-03-07T10:45:19.826Z,11.000000
2023-03-07T10:50:21.664Z,10.400000
2023-03-07T10:55:23.799Z,10.000000
2023-03-07T11:00:25.711Z,10.533333
2023-03-07T11:05:27.823Z,11.000000
2023-03-07T11:10:29.651Z,9.933333
2023-03-07T11:15:31.914Z,9.000000
2023-03-07T11:20:33.617Z,10.200000
2023-03-07T11:25:35.792Z,11.000000
2023-03-07T11:30:17.497Z,12.200000
2023-03-07T11:35:19.540Z,13.000000
2023-03-07T11:40:21.493Z,14.200000
2023-03-07T11:45:23.577Z,15.000000
2023-03-07T11:50:26.408Z,15.000000
2023-03-07T11:55:27.213Z,15.000000
2023-03-07T12:00:29.374Z,15.000000
2023-03-07T12:05:31.219Z,15.000000
2023-03-07T12:10:33.292Z,15.000000
2023-03-07T12:15:35.087Z,15.000000
2023-03-07T12:20:16.922Z,15.000000
2023-03-07T12:25:19.148Z,15.000000
2023-03-07T12:30:21.118Z,15.000000
2023-03-07T12:35:23.345Z,15.000000
2023-03-07T12:40:25.214Z,15.000000
2023-03-07T13:25:27.172Z,0.000000
2023-03-07T13:30:26.784Z,0.000000
2023-03-07T13:35:28.858Z,0.000000
2023-03-07T13:40:30.703Z,0.000000
2023-03-07T13:45:33.558Z,0.000000
2023-03-07T13:50:34.710Z,0.000000
2023-03-07T13:55:16.320Z,0.000000
2023-03-07T14:00:18.370Z,0.000000
2023-03-07T14:05:20.355Z,0.000000
2023-03-07T14:10:23.549Z,0.000000
2023-03-07T14:15:24.520Z,0.000000
2023-03-07T14:20:26.620Z,0.000000
2023-03-07T14:25:28.808Z,0.000000
2023-03-07T14:30:30.942Z,0.000000
2023-03-07T14:40:35.001Z,0.000000
2023-03-07T14:45:16.889Z,0.000000
2023-03-07T14:50:18.922Z,0.000000
2023-03-07T14:55:20.859Z,0.000000
2023-03-07T15:00:22.741Z,0.000000
2023-03-07T15:05:24.664Z,1.733333
2023-03-07T15:10:26.628Z,14.600000
2023-03-07T15:15:28.680Z,20.000000
2023-03-07T15:20:30.507Z,18.666667
2023-03-07T15:25:32.648Z,15.000000
2023-03-07T15:30:34.286Z,14.466667
2023-03-07T15:35:16.265Z,13.000000
2023-03-07T15:40:18.364Z,12.466667
2023-03-07T15:45:20.360Z,11.000000
2023-03-07T15:50:22.110Z,10.357143
2023-03-07T15:55:24.106Z,8.000000
2023-03-07T16:00:26.474Z,7.800000
2023-03-07T16:05:28.026Z,7.000000
2023-03-07T16:10:29.972Z,7.266667
2023-03-07T16:15:31.952Z,8.000000
2023-03-07T16:20:34.439Z,8.000000
2023-03-07T16:25:35.771Z,8.000000
2023-03-07T16:30:17.629Z,9.066667
2023-03-07T16:35:19.719Z,12.000000
2023-03-07T16:40:22.889Z,11.571429
2023-03-07T16:45:24.965Z,10.000000
2023-03-07T16:50:26.970Z,9.600000
2023-03-07T16:55:29.235Z,8.000000
2023-03-07T17:00:31.019Z,9.333333
2023-03-07T17:05:33.096Z,13.000000
2023-03-07T17:10:34.801Z,12.733333
2023-03-07T17:15:16.631Z,12.000000
2023-03-07T17:20:18.978Z,11.733333
2023-03-07T17:25:20.798Z,11.000000
2023-03-07T17:30:22.577Z,10.785714
2023-03-07T17:35:24.557Z,10.000000
2023-03-07T17:40:26.587Z,10.800000
2023-03-07T17:45:28.307Z,14.000000
2023-03-07T17:50:30.439Z,12.400000
2023-03-07T17:55:32.355Z,8.000000
2023-03-07T18:00:34.163Z,8.533333
2023-03-07T18:05:16.057Z,10.000000
2023-03-07T18:10:17.955Z,10.800000
2023-03-07T18:15:20.184Z,13.000000
2023-03-07T18:20:22.027Z,12.200000
2023-03-07T18:25:25.620Z,10.000000
2023-03-07T18:30:26.153Z,9.400000
2023-03-07T18:35:28.084Z,7.000000
2023-03-07T18:40:29.733Z,7.266667
2023-03-07T18:45:31.744Z,8.000000
2023-03-07T18:50:33.637Z,8.266667
2023-03-07T18:55:35.481Z,9.000000
2023-03-07T19:00:17.296Z,9.000000
2023-03-07T19:05:19.365Z,9.000000
2023-03-07T19:10:21.323Z,9.000000
2023-03-07T19:15:23.187Z,9.000000
2023-03-07T19:20:25.107Z,9.400000
2023-03-07T19:25:27.380Z,11.000000
2023-03-07T19:30:29.694Z,10.466667
2023-03-07T19:35:31.503Z,9.000000
2023-03-07T19:40:33.271Z,8.733333
2023-03-07T19:45:35.366Z,8.000000
2023-03-07T19:50:17.106Z,8.266667
2023-03-07T19:55:19.157Z,9.000000
2023-03-07T20:00:20.831Z,9.000000
2023-03-07T20:05:22.791Z,9.000000
2023-03-07T20:10:24.802Z,9.200000
2023-03-07T20:15:26.867Z,10.000000
2023-03-07T20:20:28.638Z,9.000000
2023-03-07T20:25:30.630Z,5.000000
2023-03-07T20:30:32.770Z,5.800000
2023-03-07T20:35:34.904Z,8.000000
2023-03-07T20:40:16.284Z,8.266667
2023-03-07T20:45:18.158Z,9.000000
2023-03-07T20:50:20.110Z,8.733333
2023-03-07T20:55:21.921Z,8.000000
2023-03-07T21:00:24.068Z,7.785714
2023-03-07T21:05:25.977Z,7.000000
2023-03-07T21:10:27.819Z,7.400000
2023-03-07T21:15:29.778Z,9.000000
2023-03-07T21:20:31.770Z,8.733333
2023-03-07T21:25:33.673Z,8.000000
2023-03-07T21:30:35.961Z,8.266667
2023-03-07T21:35:17.369Z,9.000000
2023-03-07T21:40:19.220Z,9.000000
2023-03-07T21:45:22.208Z,9.000000
2023-03-07T21:50:23.529Z,9.000000
2023-03-07T21:55:25.834Z,9.000000
2023-03-07T22:00:27.641Z,8.800000
2023-03-07T22:05:29.831Z,8.000000
2023-03-07T22:10:31.972Z,8.266667
2023-03-07T22:15:33.934Z,9.000000
2023-03-07T22:20:35.639Z,9.000000
2023-03-07T22:25:17.423Z,9.000000
2023-03-07T22:30:19.365Z,8.733333
2023-03-07T22:35:21.456Z,8.000000
2023-03-07T22:40:23.957Z,8.000000
2023-03-07T22:45:25.861Z,8.000000
2023-03-07T22:50:27.828Z,8.000000
2023-03-07T22:55:30.014Z,8.000000
2023-03-07T23:00:31.796Z,8.000000
2023-03-07T23:05:33.774Z,8.000000
2023-03-07T23:10:36.297Z,8.000000
2023-03-07T23:15:18.109Z,8.000000
2023-03-07T23:20:19.966Z,8.533333
2023-03-07T23:25:22.217Z,10.000000
2023-03-07T23:30:23.923Z,9.600000
2023-03-07T23:35:26.027Z,8.000000
2023-03-07T23:40:28.127Z,8.000000
2023-03-07T23:45:30.301Z,8.000000
2023-03-07T23:50:31.984Z,8.000000
2023-03-07T23:55:34.020Z,8.000000
